createdAt,value
2023-04-09T00:01:24.633Z,102323.19
2023-04-09T00:03:54.129Z,102291.38
2023-04-09T00:06:21.940Z,102315.97
2023-04-09T00:08:49.917Z,102313.25
2023-04-09T00:11:18.054Z,102374.88
2023-04-09T00:13:45.923Z,102441.78
2023-04-09T00:16:13.731Z,102476.13
2023-04-09T00:18:41.826Z,102515.78
2023-04-09T00:21:11.223Z,102528.06
2023-04-09T00:23:39.746Z,102533.31
2023-04-09T00:26:07.685Z,102578.25
2023-04-09T00:28:36.093Z,102597.63
2023-04-09T00:31:03.915Z,102574.66
2023-04-09T00:33:31.755Z,102560.44
2023-04-09T00:35:59.792Z,102531.31
2023-04-09T00:38:29.294Z,102526.78
2023-04-09T00:40:57.148Z,102535.53
2023-04-09T00:43:25.052Z,102566.34
2023-04-09T00:45:53.038Z,102601.59
2023-04-09T00:48:21.008Z,102617.41
2023-04-09T00:50:48.793Z,102621.81
2023-04-09T00:53:17.485Z,102627.94
2023-04-09T00:55:47.164Z,102643.78
2023-04-09T00:58:15.695Z,102649.06
2023-04-09T01:00:43.567Z,102629.63
2023-04-09T01:03:11.813Z,102604.00
2023-04-09T01:05:57.435Z,102590.69
2023-04-09T01:08:39.061Z,102549.19
2023-04-09T01:11:21.866Z,102560.56
2023-04-09T01:13:57.585Z,102631.03
2023-04-09T01:16:25.778Z,102648.69
2023-04-09T01:18:59.095Z,102624.00
2023-04-09T01:21:32.598Z,102616.91
2023-04-09T01:24:11.097Z,102624.00
2023-04-09T01:26:55.511Z,102611.66
2023-04-09T01:29:26.743Z,102576.38
2023-04-09T01:31:56.309Z,102544.66
2023-04-09T01:34:24.546Z,102505.00
2023-04-09T01:36:56.808Z,102529.66
2023-04-09T01:39:25.153Z,102571.06
2023-04-09T01:41:53.941Z,102598.34
2023-04-09T01:44:22.671Z,102636.31
2023-04-09T01:46:53.031Z,102643.41
2023-04-09T01:49:21.189Z,102700.75
2023-04-09T01:51:49.472Z,102776.78
2023-04-09T01:54:17.775Z,102806.88
2023-04-09T01:56:47.117Z,102810.56
2023-04-09T01:59:16.257Z,102805.28
2023-04-09T02:01:47.660Z,102815.09
2023-04-09T02:04:24.778Z,102806.28
2023-04-09T02:07:00.474Z,102848.66
2023-04-09T02:09:31.120Z,102885.84
2023-04-09T02:12:00.832Z,102890.31
2023-04-09T02:14:30.333Z,102914.22
2023-04-09T02:16:58.354Z,102913.47
2023-04-09T02:19:39.678Z,102921.44
2023-04-09T02:22:07.616Z,102941.84
2023-04-09T02:24:36.399Z,102954.28
2023-04-09T02:27:06.125Z,102947.19
2023-04-09T02:29:34.574Z,102941.88
2023-04-09T02:32:02.456Z,102966.59
2023-04-09T02:34:31.717Z,102976.41
2023-04-09T02:36:59.610Z,102979.13
2023-04-09T02:39:27.977Z,102991.50
2023-04-09T02:41:56.219Z,103004.72
2023-04-09T02:44:24.191Z,102992.44
2023-04-09T02:46:52.683Z,102996.00
2023-04-09T02:49:20.514Z,102980.06
2023-04-09T02:51:49.717Z,102973.91
2023-04-09T02:54:17.498Z,102981.00
2023-04-09T02:56:45.321Z,102965.09
2023-04-09T02:59:13.259Z,102986.34
2023-04-09T03:01:41.139Z,102987.25
2023-04-09T03:04:09.044Z,102989.03
2023-04-09T03:06:37.076Z,103000.59
2023-04-09T03:09:06.437Z,103002.44
2023-04-09T03:11:34.231Z,102991.78
2023-04-09T03:14:02.426Z,103008.63
2023-04-09T03:16:30.270Z,103019.25
2023-04-09T03:18:58.172Z,103030.78
2023-04-09T03:21:27.599Z,103035.25
2023-04-09T03:23:55.431Z,103029.13
2023-04-09T03:26:24.622Z,103024.66
2023-04-09T03:28:52.846Z,103026.47
2023-04-09T03:31:20.786Z,103022.06
2023-04-09T03:33:48.612Z,103031.88
2023-04-09T03:36:16.592Z,103046.03
2023-04-09T03:38:44.450Z,103030.09
2023-04-09T03:41:12.405Z,103030.13
2023-04-09T03:43:41.926Z,103015.16
2023-04-09T03:46:13.448Z,103023.16
2023-04-09T03:48:41.341Z,103005.44
2023-04-09T03:51:14.213Z,103018.75
2023-04-09T03:53:42.451Z,103032.06
2023-04-09T03:56:11.600Z,103038.22
2023-04-09T03:58:39.558Z,103049.78
2023-04-09T04:01:08.786Z,102981.66
2023-04-09T04:03:36.974Z,103022.38
2023-04-09T04:06:05.538Z,103032.16
2023-04-09T04:08:33.380Z,103003.84
2023-04-09T04:11:04.778Z,103019.81
2023-04-09T04:13:32.852Z,103028.69
2023-04-09T04:16:00.790Z,103050.00
2023-04-09T04:18:30.020Z,103047.34
2023-04-09T04:20:57.831Z,103051.78
2023-04-09T04:23:25.613Z,103061.53
2023-04-09T04:25:54.257Z,103063.31
2023-04-09T04:28:22.202Z,103056.31
2023-04-09T04:30:50.064Z,103053.66
2023-04-09T04:33:17.862Z,103044.81
2023-04-09T04:35:47.815Z,103043.06
2023-04-09T04:38:15.661Z,103044.03
2023-04-09T04:40:43.555Z,103051.09
2023-04-09T04:43:11.548Z,103043.13
2023-04-09T04:45:39.381Z,103025.50
2023-04-09T04:48:07.241Z,103047.66
2023-04-09T04:50:35.064Z,103028.19
2023-04-09T04:53:04.284Z,103015.84
2023-04-09T04:55:32.079Z,103032.69
2023-04-09T04:58:00.268Z,103015.91
2023-04-09T05:00:28.167Z,103012.38
2023-04-09T05:02:56.160Z,103046.03
2023-04-09T05:05:24.694Z,103012.41
2023-04-09T05:07:52.543Z,103021.22
2023-04-09T05:10:21.892Z,103041.59
2023-04-09T05:12:49.778Z,103073.50
2023-04-09T05:15:17.839Z,103075.31
2023-04-09T05:17:45.895Z,103061.22
2023-04-09T05:20:14.119Z,103025.00
2023-04-09T05:22:41.941Z,103012.66
2023-04-09T05:25:10.478Z,102990.56
2023-04-09T05:27:39.958Z,102986.19
2023-04-09T05:30:09.363Z,102997.72
2023-04-09T05:32:37.175Z,102996.91
2023-04-09T05:35:05.831Z,102956.28
2023-04-09T05:37:33.756Z,102953.69
2023-04-09T05:40:01.711Z,102932.47
2023-04-09T05:42:29.688Z,102879.41
2023-04-09T05:44:59.028Z,102878.53
2023-04-09T05:47:27.032Z,102889.19
2023-04-09T05:49:55.103Z,102901.63
2023-04-09T05:52:22.950Z,102847.72
2023-04-09T05:54:50.759Z,102818.56
2023-04-09T05:57:18.582Z,102827.41
2023-04-09T05:59:46.467Z,102796.50
2023-04-09T06:02:16.028Z,102814.19
2023-04-09T06:04:44.164Z,102824.84
2023-04-09T06:07:12.052Z,102831.03
2023-04-09T06:09:39.878Z,102801.91
2023-04-09T06:12:07.808Z,102791.28
2023-04-09T06:14:35.641Z,102793.97
2023-04-09T06:17:03.498Z,102801.06
2023-04-09T06:19:32.906Z,102791.38
2023-04-09T06:22:00.802Z,102767.50
2023-04-09T06:24:28.605Z,102794.91
2023-04-09T06:26:56.717Z,102780.81
2023-04-09T06:29:24.611Z,102787.03
2023-04-09T06:31:52.703Z,102786.22
2023-04-09T06:34:20.790Z,102723.41
2023-04-09T06:36:50.120Z,102767.69
2023-04-09T06:39:18.007Z,102719.91
2023-04-09T06:41:46.632Z,102712.84
2023-04-09T06:44:14.682Z,102643.00
2023-04-09T06:46:42.565Z,102648.28
2023-04-09T06:49:10.723Z,102635.03
2023-04-09T06:51:38.572Z,102655.41
2023-04-09T06:54:07.927Z,102673.97
2023-04-09T06:56:36.197Z,102653.66
2023-04-09T06:59:04.553Z,102672.22
2023-04-09T07:01:32.675Z,102650.09
2023-04-09T07:04:00.600Z,102621.84
2023-04-09T07:06:28.657Z,102661.63
2023-04-09T07:08:56.672Z,102589.13
2023-04-09T07:11:26.642Z,102598.88
2023-04-09T07:13:56.686Z,102642.16
2023-04-09T07:16:24.600Z,102597.94
2023-04-09T07:18:52.517Z,102567.03
2023-04-09T07:21:20.472Z,102582.06
2023-04-09T07:23:48.298Z,102581.19
2023-04-09T07:26:16.443Z,102598.84
2023-04-09T07:28:45.664Z,102572.31
2023-04-09T07:31:13.977Z,102572.31
2023-04-09T07:33:41.940Z,102597.94
2023-04-09T07:36:09.861Z,102544.03
2023-04-09T07:38:37.846Z,102549.31
2023-04-09T07:41:05.986Z,102601.47
2023-04-09T07:43:33.879Z,102567.88
2023-04-09T07:46:03.239Z,102539.56
2023-04-09T07:48:31.454Z,102505.09
2023-04-09T07:50:59.531Z,102516.63
2023-04-09T07:53:27.451Z,102521.03
2023-04-09T07:55:55.770Z,102522.78
2023-04-09T07:58:23.562Z,102540.47
2023-04-09T08:00:51.341Z,102530.75
2023-04-09T08:03:22.004Z,102545.78
2023-04-09T08:05:50.494Z,102574.06
2023-04-09T08:08:19.175Z,102595.28
2023-04-09T08:10:47.142Z,102596.16
2023-04-09T08:13:14.905Z,102567.84
2023-04-09T08:15:42.775Z,102551.03
2023-04-09T08:18:10.720Z,102480.31
2023-04-09T08:20:44.884Z,102542.19
2023-04-09T08:23:13.065Z,102571.34
2023-04-09T08:25:40.910Z,102585.44
2023-04-09T08:28:09.240Z,102474.94
2023-04-09T08:30:37.379Z,102490.91
2023-04-09T08:33:05.508Z,102480.28
2023-04-09T08:35:33.578Z,102516.53
2023-04-09T08:38:03.326Z,102577.53
2023-04-09T08:40:35.904Z,102495.28
2023-04-09T08:43:07.103Z,102543.94
2023-04-09T08:45:35.055Z,102513.84
2023-04-09T08:48:04.447Z,102527.09
2023-04-09T08:50:33.960Z,102560.69
2023-04-09T08:53:05.977Z,102585.44
2023-04-09T08:55:35.366Z,102604.84
2023-04-09T08:58:05.836Z,102619.84
2023-04-09T09:00:33.572Z,102596.78
2023-04-09T09:03:06.619Z,102614.38
2023-04-09T09:05:39.138Z,102573.59
2023-04-09T09:08:09.270Z,102541.69
2023-04-09T09:10:41.963Z,102498.31
2023-04-09T09:13:21.510Z,102495.56
2023-04-09T09:15:50.614Z,102498.19
2023-04-09T09:18:19.024Z,102426.50
2023-04-09T09:20:46.930Z,102373.63
2023-04-09T09:23:16.238Z,102416.91
2023-04-09T09:25:44.627Z,102414.25
2023-04-09T09:28:13.844Z,102438.19
2023-04-09T09:30:41.899Z,102427.53
2023-04-09T09:33:11.262Z,102448.69
2023-04-09T09:35:49.870Z,102460.94
2023-04-09T09:38:19.297Z,102412.28
2023-04-09T09:40:48.045Z,102457.31
2023-04-09T09:43:16.411Z,102420.09
2023-04-09T09:45:45.599Z,102454.47
2023-04-09T09:48:14.296Z,102388.06
2023-04-09T09:50:43.627Z,102423.28
2023-04-09T09:53:12.797Z,102395.81
2023-04-09T09:55:44.834Z,102339.28
2023-04-09T09:58:18.124Z,102311.13
2023-04-09T10:00:49.141Z,102271.34
2023-04-09T10:03:23.296Z,102339.44
2023-04-09T10:05:53.782Z,102319.09
2023-04-09T10:08:23.025Z,102325.44
2023-04-09T10:10:53.586Z,102277.75
2023-04-09T10:13:26.974Z,102315.72
2023-04-09T10:15:55.691Z,102305.91
2023-04-09T10:18:23.608Z,102342.22
2023-04-09T10:20:58.074Z,102317.53
2023-04-09T10:23:35.321Z,102441.25
2023-04-09T10:26:05.901Z,102374.00
2023-04-09T10:28:34.074Z,102399.63
2023-04-09T10:31:02.734Z,102358.94
2023-04-09T10:33:30.865Z,102400.38
2023-04-09T10:36:01.851Z,102349.91
2023-04-09T10:38:37.748Z,102425.88
2023-04-09T10:41:15.005Z,102358.47
2023-04-09T10:43:43.197Z,102308.03
2023-04-09T10:46:27.259Z,102391.13
2023-04-09T10:49:10.872Z,102289.31
2023-04-09T10:51:39.686Z,102278.44
2023-04-09T10:54:07.785Z,102329.84
2023-04-09T10:56:37.066Z,102305.88
2023-04-09T10:59:04.888Z,102282.84
2023-04-09T11:01:32.794Z,102343.81
2023-04-09T11:04:17.907Z,102266.66
2023-04-09T11:06:46.640Z,102290.69
2023-04-09T11:09:14.425Z,102296.69
2023-04-09T11:11:43.959Z,102331.09
2023-04-09T11:14:11.757Z,102361.69
2023-04-09T11:16:39.637Z,102218.16
2023-04-09T11:19:08.026Z,102136.69
2023-04-09T11:21:36.322Z,102185.44
2023-04-09T11:24:04.255Z,102254.34
2023-04-09T11:26:37.497Z,102328.25
2023-04-09T11:29:08.480Z,102290.59
2023-04-09T11:31:37.206Z,102214.28
2023-04-09T11:34:05.064Z,102124.63
2023-04-09T11:36:35.783Z,102100.72
2023-04-09T11:39:04.047Z,102068.13
2023-04-09T11:41:35.501Z,102231.59
2023-04-09T11:44:04.885Z,102087.09
2023-04-09T11:46:34.519Z,102035.09
2023-04-09T11:49:03.239Z,102059.22
2023-04-09T11:51:32.752Z,102056.63
2023-04-09T11:54:03.471Z,102060.00
2023-04-09T11:56:32.491Z,102092.84
2023-04-09T11:59:00.600Z,102004.91
2023-04-09T12:01:33.158Z,102160.59
2023-04-09T12:04:03.182Z,102142.09
2023-04-09T12:06:31.815Z,102046.03
2023-04-09T12:09:00.836Z,102055.75
2023-04-09T12:11:31.863Z,102088.72
2023-04-09T12:14:03.502Z,102082.25
2023-04-09T12:16:32.498Z,102116.50
2023-04-09T12:19:04.038Z,102005.84
2023-04-09T12:21:47.373Z,101875.13
2023-04-09T12:24:16.191Z,101829.63
2023-04-09T12:26:44.660Z,101904.19
2023-04-09T12:29:12.444Z,102020.59
2023-04-09T12:31:40.829Z,101921.94
2023-04-09T12:34:10.279Z,101929.53
2023-04-09T12:36:39.662Z,102021.00
2023-04-09T12:39:07.523Z,101974.47
2023-04-09T12:41:35.555Z,101894.44
2023-04-09T12:44:03.725Z,101977.44
2023-04-09T12:46:32.782Z,101959.50
2023-04-09T12:49:00.928Z,101722.66
2023-04-09T12:51:30.732Z,101802.06
2023-04-09T12:53:58.867Z,101710.53
2023-04-09T12:56:29.736Z,101753.13
2023-04-09T12:58:57.789Z,101927.41
2023-04-09T13:01:26.014Z,101837.31
2023-04-09T13:03:54.165Z,101843.50
2023-04-09T13:06:22.994Z,101893.66
2023-04-09T13:08:52.390Z,102029.91
2023-04-09T13:11:20.292Z,101817.91
2023-04-09T13:13:48.097Z,101621.50
2023-04-09T13:16:16.315Z,101618.59
2023-04-09T13:18:44.277Z,101663.47
2023-04-09T13:21:13.333Z,101663.69
2023-04-09T13:23:41.561Z,101710.94
2023-04-09T13:26:10.905Z,101725.56
2023-04-09T13:28:38.898Z,101705.34
2023-04-09T13:31:07.626Z,101746.06
2023-04-09T13:33:35.579Z,101661.91
2023-04-09T13:36:03.609Z,101719.03
2023-04-09T13:38:31.976Z,101699.00
2023-04-09T13:40:59.927Z,101745.84
2023-04-09T13:43:29.276Z,101776.63
2023-04-09T17:25:27.689Z,101271.53
2023-04-09T17:27:55.997Z,101280.59
2023-04-09T17:30:24.439Z,101288.00
2023-04-09T17:32:53.116Z,101299.84
2023-04-09T17:35:21.780Z,101315.19
2023-04-09T17:37:50.315Z,101327.78
2023-04-09T17:40:20.326Z,101317.56
2023-04-09T17:42:52.236Z,101323.22
2023-04-09T17:45:20.966Z,101338.72
2023-04-09T17:47:51.255Z,101355.16
2023-04-09T17:50:22.635Z,101378.72
2023-04-09T17:52:51.161Z,101404.88
2023-04-09T17:55:19.644Z,101430.06
2023-04-09T17:57:50.737Z,101455.09
2023-04-09T18:00:18.813Z,101472.13
2023-04-09T18:02:47.015Z,101494.44
2023-04-09T18:05:15.274Z,101487.56
2023-04-09T18:07:43.261Z,101492.34
2023-04-09T18:10:11.660Z,101479.34
2023-04-09T18:12:39.492Z,101491.13
2023-04-09T18:15:09.777Z,101518.84
2023-04-09T18:17:37.660Z,101529.69
2023-04-09T18:20:06.553Z,101529.13
2023-04-09T18:22:35.120Z,101565.69
2023-04-09T18:25:03.299Z,101572.19
2023-04-09T18:27:31.451Z,101583.94
2023-04-09T18:29:59.312Z,101595.66
2023-04-09T18:32:28.576Z,101606.53
2023-04-09T18:34:56.946Z,101628.84
2023-04-09T18:37:25.021Z,101634.38
2023-04-09T18:39:52.784Z,101647.84
2023-04-09T18:42:20.501Z,101673.69
2023-04-09T18:44:48.738Z,101688.84
2023-04-09T18:47:16.491Z,101691.69
2023-04-09T18:49:45.778Z,101710.41
2023-04-09T18:52:13.533Z,101725.53
2023-04-09T18:54:41.334Z,101751.28
2023-04-09T18:57:09.222Z,101785.78
2023-04-09T18:59:40.364Z,101788.53
2023-04-09T19:02:08.296Z,101787.84
2023-04-09T19:04:39.720Z,101792.41
2023-04-09T19:07:09.484Z,101820.84
2023-04-09T19:09:39.523Z,101816.59
2023-04-09T19:12:07.430Z,101818.47
2023-04-09T19:14:36.484Z,101830.91
2023-04-09T19:17:04.253Z,101832.75
2023-04-09T19:19:32.576Z,101850.47
2023-04-09T19:22:00.471Z,101847.97
2023-04-09T19:24:30.143Z,101846.31
2023-04-09T19:26:58.260Z,101862.28
2023-04-09T19:29:26.933Z,101862.34
2023-04-09T19:31:54.758Z,101879.22
2023-04-09T19:34:22.755Z,101912.78
2023-04-09T19:36:51.035Z,101958.63
2023-04-09T19:39:18.883Z,101954.28
2023-04-09T19:41:48.107Z,101979.03
2023-04-09T19:44:15.922Z,102016.06
2023-04-09T19:46:43.674Z,102071.53
2023-04-09T19:49:11.429Z,102059.13
2023-04-09T19:51:39.440Z,102067.09
2023-04-09T19:54:07.277Z,102084.75
2023-04-09T19:56:35.135Z,102034.47
2023-04-09T19:59:04.283Z,102022.25
2023-04-09T20:01:32.468Z,102069.94
2023-04-09T20:04:01.010Z,102058.56
2023-04-09T20:06:30.739Z,102069.22
2023-04-09T20:08:59.292Z,102076.31
2023-04-09T20:11:27.154Z,102062.25
2023-04-09T20:13:54.948Z,102038.56
2023-04-09T20:16:24.250Z,102014.81
2023-04-09T20:18:52.106Z,102011.31
2023-04-09T20:21:20.193Z,102007.84
2023-04-09T20:23:48.074Z,102013.19
2023-04-09T20:26:16.345Z,102012.34
2023-04-09T20:28:44.179Z,101994.75
2023-04-09T20:31:12.068Z,102005.41
2023-04-09T20:33:41.563Z,102005.44
2023-04-09T20:36:15.312Z,102041.66
2023-04-09T20:38:43.264Z,102077.84
2023-04-09T20:41:11.261Z,102077.91
2023-04-09T20:43:39.487Z,102099.09
2023-04-09T20:46:07.393Z,102107.03
2023-04-09T20:48:35.410Z,102132.66
2023-04-09T20:51:09.780Z,102145.88
2023-04-09T20:53:37.788Z,102169.72
2023-04-09T20:56:06.220Z,102170.63
2023-04-09T20:58:34.513Z,102180.31
2023-04-09T21:01:07.734Z,102242.03
2023-04-09T21:03:36.331Z,102235.00
2023-04-09T21:06:06.518Z,102225.31
2023-04-09T21:08:34.265Z,102198.00
2023-04-09T21:11:02.234Z,102186.53
2023-04-09T21:13:33.661Z,102174.19
2023-04-09T21:16:08.292Z,102200.66
2023-04-09T21:18:36.345Z,102180.38
2023-04-09T21:21:08.572Z,102190.97
2023-04-09T21:23:36.666Z,102206.84
2023-04-09T21:26:05.457Z,102224.47
2023-04-09T21:28:33.274Z,102243.88
2023-04-09T21:31:01.395Z,102251.81
2023-04-09T21:33:30.321Z,102235.06
2023-04-09T21:35:58.462Z,102234.19
2023-04-09T21:38:28.022Z,102230.66
2023-04-09T21:40:56.674Z,102229.75
2023-04-09T21:43:24.856Z,102213.88
2023-04-09T21:45:52.893Z,102198.03
2023-04-09T21:48:21.522Z,102172.47
2023-04-09T21:50:49.399Z,102173.34
2023-04-09T21:53:17.478Z,102168.94
2023-04-09T21:55:47.133Z,102157.50
2023-04-09T21:58:14.909Z,102163.66
2023-04-09T22:00:42.916Z,102172.47
2023-04-09T22:03:11.106Z,102164.53
2023-04-09T22:05:39.184Z,102160.13
2023-04-09T22:08:07.301Z,102141.63
2023-04-09T22:10:35.580Z,102161.00
2023-04-09T22:13:04.833Z,102192.75
2023-04-09T22:15:32.728Z,102221.84
2023-04-09T22:18:00.628Z,102228.88
2023-04-09T22:20:28.431Z,102272.13
2023-04-09T22:22:56.168Z,102328.56
2023-04-09T22:25:24.176Z,102360.31
2023-04-09T22:27:53.932Z,102384.16
2023-04-09T22:30:24.533Z,102400.94
2023-04-09T22:32:52.653Z,102397.38
2023-04-09T22:35:20.678Z,102418.59
2023-04-09T22:37:48.372Z,102409.75
2023-04-09T22:40:16.683Z,102393.84
2023-04-09T22:42:45.433Z,102417.69
2023-04-09T22:45:14.015Z,102420.34
2023-04-09T22:47:43.314Z,102442.41
2023-04-09T22:50:13.484Z,102448.59
2023-04-09T22:52:41.252Z,102430.94
2023-04-09T22:55:10.054Z,102433.56
2023-04-09T22:57:38.401Z,102440.59
2023-04-09T23:00:08.483Z,102415.91
2023-04-09T23:02:37.008Z,102434.44
2023-04-09T23:05:07.086Z,102431.78
2023-04-09T23:07:35.563Z,102435.28
2023-04-09T23:10:03.338Z,102437.94
2023-04-09T23:12:31.184Z,102437.06
2023-04-09T23:14:59.136Z,102424.69
2023-04-09T23:17:27.842Z,102420.28
2023-04-09T23:19:55.727Z,102414.97
2023-04-09T23:22:27.069Z,102421.16
2023-04-09T23:24:54.955Z,102387.63
2023-04-09T23:27:28.105Z,102373.50
2023-04-09T23:29:56.467Z,102370.84
2023-04-09T23:32:24.282Z,102362.91
2023-04-09T23:34:52.149Z,102372.59
2023-04-09T23:37:20.595Z,102355.84
2023-04-09T23:39:49.826Z,102377.91
2023-04-09T23:42:17.779Z,102346.13
2023-04-09T23:44:45.614Z,102332.91
2023-04-09T23:47:13.738Z,102336.44
2023-04-09T23:49:43.412Z,102316.16
2023-04-09T23:52:11.412Z,102287.03
2023-04-09T23:54:39.325Z,102280.84
2023-04-09T23:57:08.605Z,102250.88
2023-04-09T23:59:36.533Z,102248.22
